Whallonsburg, New York
Current Conditions -  °F | °C
As of 3:54 AM on Thursday 23 Oct 2014 (Local Time) from KBTV Reporting Station
Overcast Overcast  
Wind Chill: 38°   Ceiling: 3000
Heat Index: 45°   Visibility: 10mi
Dew Point: 36°   Wind: 15mph
Humidity: 71%   Direction: 350°N
Pressure: 30.02"   Gusts: 25mph
Location:  44.287°N, 73.399°W
Report Text: KBTV 230754Z 35013G22KT 10SM OVC030 07/02 A3002 RMK AO2 SLP166 T00720022
Loading
Personal Weather Stations






























Interactive Weather Map
Tropical Storm Tracking
New forecast layout! Learn more

10-Day Weather Forecast

Advertisements
Track Severe Weather on mobile